This is the latest recevied weather packets stored in our database for station/object DG0PX-12. If no packets are shown the sender has not sent any weather packets the latest 10 day(s).
| Time | Temp. | Humidity | Pressure | Rain* | Wind** | Luminosity | Snow |
|---|---|---|---|---|---|---|---|
| 1787906682 | 35.56° C | 38% | 944.1 hPa | - | - | - | - |
| 1787905782 | 37.22° C | 34% | 944.7 hPa | - | - | - | - |
| 1787904882 | 36.11° C | 37% | 944.9 hPa | - | - | - | - |
| 1787903982 | 32.22° C | 45% | 944.7 hPa | - | - | - | - |
| 1787903081 | 34.44° C | 39% | 944.8 hPa | - | - | - | - |
| 1787902181 | 31.11° C | 46% | 944.6 hPa | - | - | - | - |
| 1787901281 | 31.11° C | 45% | 944.7 hPa | - | - | - | - |
| 1787900381 | 30° C | 46% | 944.7 hPa | - | - | - | - |
| 1787899481 | 30° C | 46% | 944.9 hPa | - | - | - | - |
| 1787898581 | 29.44° C | 47% | 944.9 hPa | - | - | - | - |
| 1787897681 | 29.44° C | 45% | 945.3 hPa | - | - | - | - |
| 1787896781 | 28.89° C | 45% | 945.4 hPa | - | - | - | - |
| 1787895881 | 26.67° C | 54% | 945.2 hPa | - | - | - | - |
| 1787894981 | 26.67° C | 52% | 945.1 hPa | - | - | - | - |
| 1787894081 | 26.11° C | 53% | 944.9 hPa | - | - | - | - |
| 1787893181 | 25.56° C | 54% | 944.9 hPa | - | - | - | - |
| 1787892281 | 25° C | 57% | 945 hPa | - | - | - | - |
| 1787891381 | 25.56° C | 57% | 944.9 hPa | - | - | - | - |
| 1787890481 | 25.56° C | 58% | 944.9 hPa | - | - | - | - |
| 1787889581 | 25.56° C | 58% | 944.9 hPa | - | - | - | - |
| 1787888681 | 25.56° C | 57% | 945 hPa | - | - | - | - |
| 1787887781 | 26.67° C | 53% | 945.2 hPa | - | - | - | - |
| 1787886880 | 25° C | 59% | 945.1 hPa | - | - | - | - |
| 1787885980 | 25.56° C | 58% | 945.2 hPa | - | - | - | - |
| 1787885080 | 23.89° C | 67% | 945.3 hPa | - | - | - | - |
* Rain since midnight (hover to see other rain measurements)
** Current wind speed in m/s (hover to see current wind gust speed)